sensor_id;sensor_type;location;lat;lon;timestamp;P1;durP1;ratioP1;P2;durP2;ratioP2
43529;SDS011;55654;50.966;6.878;2023-06-14T00:02:21;10.63;;;4.43;;
43529;SDS011;55654;50.966;6.878;2023-06-14T00:04:47;9.25;;;4.88;;
43529;SDS011;55654;50.966;6.878;2023-06-14T00:07:13;6.68;;;4.65;;
43529;SDS011;55654;50.966;6.878;2023-06-14T00:09:41;9.18;;;5.38;;
43529;SDS011;55654;50.966;6.878;2023-06-14T00:12:10;13.60;;;5.07;;
43529;SDS011;55654;50.966;6.878;2023-06-14T00:14:36;5.72;;;4.50;;
43529;SDS011;55654;50.966;6.878;2023-06-14T00:17:05;9.55;;;4.75;;
43529;SDS011;55654;50.966;6.878;2023-06-14T00:19:32;11.35;;;5.05;;
43529;SDS011;55654;50.966;6.878;2023-06-14T00:22:00;8.35;;;5.35;;
43529;SDS011;55654;50.966;6.878;2023-06-14T00:24:26;6.80;;;4.95;;
43529;SDS011;55654;50.966;6.878;2023-06-14T00:26:52;8.20;;;4.78;;
43529;SDS011;55654;50.966;6.878;2023-06-14T00:29:22;6.03;;;4.78;;
43529;SDS011;55654;50.966;6.878;2023-06-14T00:31:56;6.70;;;4.55;;
43529;SDS011;55654;50.966;6.878;2023-06-14T00:34:25;9.75;;;5.13;;
43529;SDS011;55654;50.966;6.878;2023-06-14T00:36:51;9.73;;;5.15;;
43529;SDS011;55654;50.966;6.878;2023-06-14T00:39:17;10.45;;;4.90;;
43529;SDS011;55654;50.966;6.878;2023-06-14T00:41:46;7.82;;;5.13;;
43529;SDS011;55654;50.966;6.878;2023-06-14T00:44:13;9.68;;;5.30;;
43529;SDS011;55654;50.966;6.878;2023-06-14T00:46:41;7.10;;;5.25;;
43529;SDS011;55654;50.966;6.878;2023-06-14T00:49:09;12.25;;;5.07;;
43529;SDS011;55654;50.966;6.878;2023-06-14T00:51:43;12.45;;;4.82;;
43529;SDS011;55654;50.966;6.878;2023-06-14T00:54:09;11.45;;;5.32;;
43529;SDS011;55654;50.966;6.878;2023-06-14T00:56:35;11.95;;;5.07;;
43529;SDS011;55654;50.966;6.878;2023-06-14T00:59:02;9.10;;;5.03;;
43529;SDS011;55654;50.966;6.878;2023-06-14T01:01:31;9.98;;;4.97;;
43529;SDS011;55654;50.966;6.878;2023-06-14T01:04:00;9.43;;;5.18;;
43529;SDS011;55654;50.966;6.878;2023-06-14T01:11:26;10.13;;;5.10;;
43529;SDS011;55654;50.966;6.878;2023-06-14T01:14:17;9.50;;;5.18;;
43529;SDS011;55654;50.966;6.878;2023-06-14T01:16:43;6.57;;;4.38;;
43529;SDS011;55654;50.966;6.878;2023-06-14T01:19:10;7.80;;;4.97;;
43529;SDS011;55654;50.966;6.878;2023-06-14T01:21:41;9.57;;;5.55;;
43529;SDS011;55654;50.966;6.878;2023-06-14T01:24:08;11.20;;;5.93;;
43529;SDS011;55654;50.966;6.878;2023-06-14T01:26:34;8.45;;;4.68;;
43529;SDS011;55654;50.966;6.878;2023-06-14T01:29:07;7.97;;;4.57;;
43529;SDS011;55654;50.966;6.878;2023-06-14T01:31:33;8.80;;;4.97;;
43529;SDS011;55654;50.966;6.878;2023-06-14T01:34:06;5.93;;;4.72;;
43529;SDS011;55654;50.966;6.878;2023-06-14T01:36:33;8.95;;;4.68;;
43529;SDS011;55654;50.966;6.878;2023-06-14T01:39:01;7.00;;;4.72;;
43529;SDS011;55654;50.966;6.878;2023-06-14T01:41:27;7.47;;;4.60;;
43529;SDS011;55654;50.966;6.878;2023-06-14T01:43:54;10.63;;;5.07;;
43529;SDS011;55654;50.966;6.878;2023-06-14T01:46:22;7.13;;;5.00;;
43529;SDS011;55654;50.966;6.878;2023-06-14T01:48:49;6.75;;;4.55;;
43529;SDS011;55654;50.966;6.878;2023-06-14T01:51:15;9.63;;;5.10;;
43529;SDS011;55654;50.966;6.878;2023-06-14T01:53:41;6.35;;;5.32;;
43529;SDS011;55654;50.966;6.878;2023-06-14T01:56:07;7.45;;;5.30;;
43529;SDS011;55654;50.966;6.878;2023-06-14T01:58:33;9.65;;;5.10;;
43529;SDS011;55654;50.966;6.878;2023-06-14T02:01:06;5.90;;;4.45;;
43529;SDS011;55654;50.966;6.878;2023-06-14T02:03:33;7.47;;;4.97;;
43529;SDS011;55654;50.966;6.878;2023-06-14T02:06:03;8.95;;;5.70;;
43529;SDS011;55654;50.966;6.878;2023-06-14T02:08:29;11.43;;;5.65;;
43529;SDS011;55654;50.966;6.878;2023-06-14T02:10:55;8.38;;;5.28;;
43529;SDS011;55654;50.966;6.878;2023-06-14T02:13:21;10.82;;;5.38;;
43529;SDS011;55654;50.966;6.878;2023-06-14T02:15:47;9.93;;;5.40;;
43529;SDS011;55654;50.966;6.878;2023-06-14T02:18:16;8.82;;;4.72;;
43529;SDS011;55654;50.966;6.878;2023-06-14T02:20:44;7.10;;;5.40;;
43529;SDS011;55654;50.966;6.878;2023-06-14T02:23:10;10.88;;;5.53;;
43529;SDS011;55654;50.966;6.878;2023-06-14T02:25:39;9.38;;;5.22;;
43529;SDS011;55654;50.966;6.878;2023-06-14T02:28:08;8.40;;;4.90;;
43529;SDS011;55654;50.966;6.878;2023-06-14T02:30:34;7.80;;;5.32;;
43529;SDS011;55654;50.966;6.878;2023-06-14T02:33:02;10.27;;;5.45;;
43529;SDS011;55654;50.966;6.878;2023-06-14T02:35:29;10.98;;;5.57;;
43529;SDS011;55654;50.966;6.878;2023-06-14T02:37:58;8.27;;;4.85;;
43529;SDS011;55654;50.966;6.878;2023-06-14T02:40:24;7.93;;;5.00;;
43529;SDS011;55654;50.966;6.878;2023-06-14T02:42:53;8.52;;;5.35;;
43529;SDS011;55654;50.966;6.878;2023-06-14T02:45:19;7.90;;;5.00;;
43529;SDS011;55654;50.966;6.878;2023-06-14T02:47:46;7.13;;;5.25;;
43529;SDS011;55654;50.966;6.878;2023-06-14T02:50:14;8.82;;;5.40;;
43529;SDS011;55654;50.966;6.878;2023-06-14T02:52:43;8.25;;;5.97;;
43529;SDS011;55654;50.966;6.878;2023-06-14T02:55:10;8.75;;;5.20;;
43529;SDS011;55654;50.966;6.878;2023-06-14T02:57:38;11.63;;;5.63;;
43529;SDS011;55654;50.966;6.878;2023-06-14T03:00:05;7.63;;;4.40;;
43529;SDS011;55654;50.966;6.878;2023-06-14T03:02:37;6.93;;;4.90;;
43529;SDS011;55654;50.966;6.878;2023-06-14T03:05:03;7.82;;;5.95;;
43529;SDS011;55654;50.966;6.878;2023-06-14T03:07:33;6.60;;;5.20;;
43529;SDS011;55654;50.966;6.878;2023-06-14T03:10:04;10.15;;;5.95;;
43529;SDS011;55654;50.966;6.878;2023-06-14T03:12:34;7.97;;;4.78;;
43529;SDS011;55654;50.966;6.878;2023-06-14T03:15:00;11.23;;;6.07;;
43529;SDS011;55654;50.966;6.878;2023-06-14T03:17:27;9.10;;;6.05;;
43529;SDS011;55654;50.966;6.878;2023-06-14T03:19:55;9.45;;;5.35;;
43529;SDS011;55654;50.966;6.878;2023-06-14T03:22:36;9.63;;;5.90;;
43529;SDS011;55654;50.966;6.878;2023-06-14T03:25:08;10.60;;;5.47;;
43529;SDS011;55654;50.966;6.878;2023-06-14T03:27:36;8.17;;;5.50;;
43529;SDS011;55654;50.966;6.878;2023-06-14T03:30:13;9.00;;;5.63;;
43529;SDS011;55654;50.966;6.878;2023-06-14T03:32:59;9.97;;;5.73;;
43529;SDS011;55654;50.966;6.878;2023-06-14T03:35:28;10.50;;;5.60;;
43529;SDS011;55654;50.966;6.878;2023-06-14T03:38:07;10.18;;;5.38;;
43529;SDS011;55654;50.966;6.878;2023-06-14T03:40:41;13.43;;;5.73;;
43529;SDS011;55654;50.966;6.878;2023-06-14T03:43:09;10.03;;;6.03;;
43529;SDS011;55654;50.966;6.878;2023-06-14T03:45:35;9.60;;;6.37;;
43529;SDS011;55654;50.966;6.878;2023-06-14T03:48:01;9.07;;;6.57;;
43529;SDS011;55654;50.966;6.878;2023-06-14T03:50:37;9.90;;;5.53;;
43529;SDS011;55654;50.966;6.878;2023-06-14T03:53:06;9.20;;;6.30;;
43529;SDS011;55654;50.966;6.878;2023-06-14T03:55:32;10.47;;;6.10;;
43529;SDS011;55654;50.966;6.878;2023-06-14T03:57:58;15.50;;;6.10;;
43529;SDS011;55654;50.966;6.878;2023-06-14T04:00:25;9.07;;;6.23;;
43529;SDS011;55654;50.966;6.878;2023-06-14T04:02:51;10.27;;;5.90;;
43529;SDS011;55654;50.966;6.878;2023-06-14T04:05:20;13.23;;;6.47;;
43529;SDS011;55654;50.966;6.878;2023-06-14T04:07:51;11.17;;;5.47;;
43529;SDS011;55654;50.966;6.878;2023-06-14T04:10:21;9.60;;;5.77;;
43529;SDS011;55654;50.966;6.878;2023-06-14T04:12:47;11.07;;;6.27;;
43529;SDS011;55654;50.966;6.878;2023-06-14T04:15:13;13.20;;;6.97;;
43529;SDS011;55654;50.966;6.878;2023-06-14T04:17:41;10.00;;;6.50;;
43529;SDS011;55654;50.966;6.878;2023-06-14T04:20:07;13.03;;;6.30;;
43529;SDS011;55654;50.966;6.878;2023-06-14T04:22:56;12.73;;;6.60;;
43529;SDS011;55654;50.966;6.878;2023-06-14T04:25:24;10.40;;;6.80;;
43529;SDS011;55654;50.966;6.878;2023-06-14T04:27:51;7.80;;;5.90;;
43529;SDS011;55654;50.966;6.878;2023-06-14T04:30:17;11.40;;;5.83;;
43529;SDS011;55654;50.966;6.878;2023-06-14T04:32:43;15.37;;;6.27;;
43529;SDS011;55654;50.966;6.878;2023-06-14T04:35:10;12.13;;;6.50;;
43529;SDS011;55654;50.966;6.878;2023-06-14T04:37:37;10.30;;;6.10;;
43529;SDS011;55654;50.966;6.878;2023-06-14T04:40:05;10.77;;;6.27;;
43529;SDS011;55654;50.966;6.878;2023-06-14T04:42:31;8.65;;;6.00;;
43529;SDS011;55654;50.966;6.878;2023-06-14T04:44:57;11.85;;;6.78;;
43529;SDS011;55654;50.966;6.878;2023-06-14T04:47:24;15.93;;;6.40;;
43529;SDS011;55654;50.966;6.878;2023-06-14T04:49:54;10.60;;;6.63;;
43529;SDS011;55654;50.966;6.878;2023-06-14T04:52:20;15.88;;;6.50;;
43529;SDS011;55654;50.966;6.878;2023-06-14T04:54:48;10.60;;;6.10;;
43529;SDS011;55654;50.966;6.878;2023-06-14T04:57:14;15.13;;;6.97;;
43529;SDS011;55654;50.966;6.878;2023-06-14T04:59:44;12.75;;;6.38;;
43529;SDS011;55654;50.966;6.878;2023-06-14T05:02:11;11.60;;;6.53;;
43529;SDS011;55654;50.966;6.878;2023-06-14T05:04:37;9.48;;;5.88;;
43529;SDS011;55654;50.966;6.878;2023-06-14T05:07:09;13.48;;;6.65;;
43529;SDS011;55654;50.966;6.878;2023-06-14T05:09:35;8.63;;;6.35;;
43529;SDS011;55654;50.966;6.878;2023-06-14T05:12:02;10.18;;;5.57;;
43529;SDS011;55654;50.966;6.878;2023-06-14T05:14:28;8.02;;;5.90;;
43529;SDS011;55654;50.966;6.878;2023-06-14T05:16:54;7.80;;;5.85;;
43529;SDS011;55654;50.966;6.878;2023-06-14T05:19:23;9.55;;;5.95;;
43529;SDS011;55654;50.966;6.878;2023-06-14T05:21:50;9.05;;;6.32;;
43529;SDS011;55654;50.966;6.878;2023-06-14T05:24:20;14.13;;;5.75;;
43529;SDS011;55654;50.966;6.878;2023-06-14T05:26:47;10.65;;;5.40;;
43529;SDS011;55654;50.966;6.878;2023-06-14T05:29:13;9.85;;;5.82;;
43529;SDS011;55654;50.966;6.878;2023-06-14T05:31:40;11.15;;;4.85;;
43529;SDS011;55654;50.966;6.878;2023-06-14T05:34:08;10.52;;;4.60;;
43529;SDS011;55654;50.966;6.878;2023-06-14T05:36:34;10.48;;;4.22;;
43529;SDS011;55654;50.966;6.878;2023-06-14T05:39:02;7.28;;;3.67;;
43529;SDS011;55654;50.966;6.878;2023-06-14T05:41:29;8.38;;;3.50;;
43529;SDS011;55654;50.966;6.878;2023-06-14T05:43:57;11.27;;;3.95;;
43529;SDS011;55654;50.966;6.878;2023-06-14T05:46:25;10.80;;;3.67;;
43529;SDS011;55654;50.966;6.878;2023-06-14T05:48:51;11.10;;;4.18;;
43529;SDS011;55654;50.966;6.878;2023-06-14T05:51:17;11.07;;;3.95;;
43529;SDS011;55654;50.966;6.878;2023-06-14T05:53:46;10.88;;;3.20;;
43529;SDS011;55654;50.966;6.878;2023-06-14T05:56:15;7.50;;;3.70;;
43529;SDS011;55654;50.966;6.878;2023-06-14T05:58:42;12.02;;;3.65;;
43529;SDS011;55654;50.966;6.878;2023-06-14T06:01:16;8.10;;;3.28;;
43529;SDS011;55654;50.966;6.878;2023-06-14T06:03:45;12.77;;;3.75;;
43529;SDS011;55654;50.966;6.878;2023-06-14T06:06:21;9.10;;;3.05;;
43529;SDS011;55654;50.966;6.878;2023-06-14T06:08:50;6.30;;;3.40;;
43529;SDS011;55654;50.966;6.878;2023-06-14T06:11:16;7.18;;;3.03;;
43529;SDS011;55654;50.966;6.878;2023-06-14T06:13:42;6.13;;;2.95;;
43529;SDS011;55654;50.966;6.878;2023-06-14T06:16:08;6.50;;;3.47;;
43529;SDS011;55654;50.966;6.878;2023-06-14T06:18:36;7.00;;;3.20;;
43529;SDS011;55654;50.966;6.878;2023-06-14T06:21:23;6.82;;;3.47;;
43529;SDS011;55654;50.966;6.878;2023-06-14T06:23:49;12.98;;;3.90;;
43529;SDS011;55654;50.966;6.878;2023-06-14T06:26:33;9.82;;;2.85;;
43529;SDS011;55654;50.966;6.878;2023-06-14T06:28:59;6.30;;;3.08;;
43529;SDS011;55654;50.966;6.878;2023-06-14T06:31:25;18.67;;;3.67;;
43529;SDS011;55654;50.966;6.878;2023-06-14T06:33:52;5.90;;;2.63;;
43529;SDS011;55654;50.966;6.878;2023-06-14T06:36:20;6.40;;;3.08;;
43529;SDS011;55654;50.966;6.878;2023-06-14T06:38:47;9.00;;;3.40;;
43529;SDS011;55654;50.966;6.878;2023-06-14T06:41:13;4.65;;;2.50;;
43529;SDS011;55654;50.966;6.878;2023-06-14T06:43:39;16.25;;;3.72;;
43529;SDS011;55654;50.966;6.878;2023-06-14T06:46:08;5.63;;;2.75;;
43529;SDS011;55654;50.966;6.878;2023-06-14T06:48:37;7.05;;;2.97;;
43529;SDS011;55654;50.966;6.878;2023-06-14T06:51:10;9.70;;;4.00;;
43529;SDS011;55654;50.966;6.878;2023-06-14T06:53:38;9.30;;;2.92;;
43529;SDS011;55654;50.966;6.878;2023-06-14T06:56:04;7.72;;;3.58;;
43529;SDS011;55654;50.966;6.878;2023-06-14T06:58:32;5.63;;;2.30;;
43529;SDS011;55654;50.966;6.878;2023-06-14T07:00:58;6.85;;;2.42;;
43529;SDS011;55654;50.966;6.878;2023-06-14T07:03:29;6.68;;;2.67;;
43529;SDS011;55654;50.966;6.878;2023-06-14T07:05:55;24.00;;;2.72;;
43529;SDS011;55654;50.966;6.878;2023-06-14T07:08:21;5.97;;;2.60;;
43529;SDS011;55654;50.966;6.878;2023-06-14T07:10:47;5.53;;;3.15;;
43529;SDS011;55654;50.966;6.878;2023-06-14T07:13:13;8.27;;;2.15;;
43529;SDS011;55654;50.966;6.878;2023-06-14T07:15:40;4.40;;;2.45;;
43529;SDS011;55654;50.966;6.878;2023-06-14T07:18:06;10.07;;;2.65;;
43529;SDS011;55654;50.966;6.878;2023-06-14T07:20:33;12.65;;;3.25;;
43529;SDS011;55654;50.966;6.878;2023-06-14T07:22:59;6.05;;;2.38;;
43529;SDS011;55654;50.966;6.878;2023-06-14T07:25:25;8.90;;;2.30;;
43529;SDS011;55654;50.966;6.878;2023-06-14T07:27:51;4.80;;;2.65;;
43529;SDS011;55654;50.966;6.878;2023-06-14T07:30:17;5.68;;;2.40;;
43529;SDS011;55654;50.966;6.878;2023-06-14T07:32:45;6.88;;;2.45;;
43529;SDS011;55654;50.966;6.878;2023-06-14T07:35:12;8.73;;;2.58;;
43529;SDS011;55654;50.966;6.878;2023-06-14T07:37:38;8.95;;;2.50;;
43529;SDS011;55654;50.966;6.878;2023-06-14T07:40:04;8.00;;;2.95;;
43529;SDS011;55654;50.966;6.878;2023-06-14T07:42:32;5.55;;;2.33;;
43529;SDS011;55654;50.966;6.878;2023-06-14T07:44:58;10.10;;;2.35;;
43529;SDS011;55654;50.966;6.878;2023-06-14T07:47:24;5.93;;;2.72;;
43529;SDS011;55654;50.966;6.878;2023-06-14T07:49:51;3.70;;;2.10;;
43529;SDS011;55654;50.966;6.878;2023-06-14T07:52:17;7.47;;;2.08;;
43529;SDS011;55654;50.966;6.878;2023-06-14T07:54:43;5.70;;;1.90;;
43529;SDS011;55654;50.966;6.878;2023-06-14T07:57:09;5.30;;;1.85;;
43529;SDS011;55654;50.966;6.878;2023-06-14T07:59:35;5.22;;;1.98;;
43529;SDS011;55654;50.966;6.878;2023-06-14T08:02:10;8.02;;;2.17;;
43529;SDS011;55654;50.966;6.878;2023-06-14T08:04:36;2.58;;;1.50;;
43529;SDS011;55654;50.966;6.878;2023-06-14T08:07:03;3.10;;;1.70;;
43529;SDS011;55654;50.966;6.878;2023-06-14T08:09:29;5.55;;;1.27;;
43529;SDS011;55654;50.966;6.878;2023-06-14T08:11:59;2.17;;;1.00;;
43529;SDS011;55654;50.966;6.878;2023-06-14T08:14:25;8.15;;;1.55;;
43529;SDS011;55654;50.966;6.878;2023-06-14T08:16:51;3.00;;;1.20;;
43529;SDS011;55654;50.966;6.878;2023-06-14T08:19:17;1.25;;;0.95;;
43529;SDS011;55654;50.966;6.878;2023-06-14T08:21:43;1.30;;;0.90;;
43529;SDS011;55654;50.966;6.878;2023-06-14T08:24:13;2.08;;;1.05;;
43529;SDS011;55654;50.966;6.878;2023-06-14T08:26:39;1.67;;;1.10;;
43529;SDS011;55654;50.966;6.878;2023-06-14T08:29:06;5.38;;;1.15;;
43529;SDS011;55654;50.966;6.878;2023-06-14T08:31:32;2.05;;;1.13;;
43529;SDS011;55654;50.966;6.878;2023-06-14T08:33:58;4.68;;;1.50;;
43529;SDS011;55654;50.966;6.878;2023-06-14T08:36:24;2.78;;;1.20;;
43529;SDS011;55654;50.966;6.878;2023-06-14T08:38:51;3.78;;;1.10;;
43529;SDS011;55654;50.966;6.878;2023-06-14T08:41:20;2.97;;;1.30;;
43529;SDS011;55654;50.966;6.878;2023-06-14T08:43:47;2.88;;;1.08;;
43529;SDS011;55654;50.966;6.878;2023-06-14T08:46:14;3.50;;;1.63;;
43529;SDS011;55654;50.966;6.878;2023-06-14T08:48:44;4.00;;;2.10;;
43529;SDS011;55654;50.966;6.878;2023-06-14T08:51:26;4.03;;;1.35;;
43529;SDS011;55654;50.966;6.878;2023-06-14T08:53:58;2.65;;;1.15;;
43529;SDS011;55654;50.966;6.878;2023-06-14T08:56:27;5.07;;;1.48;;
43529;SDS011;55654;50.966;6.878;2023-06-14T08:58:54;2.53;;;1.50;;
43529;SDS011;55654;50.966;6.878;2023-06-14T09:01:21;1.70;;;1.15;;
43529;SDS011;55654;50.966;6.878;2023-06-14T09:03:48;5.38;;;1.27;;
43529;SDS011;55654;50.966;6.878;2023-06-14T09:06:14;2.28;;;1.40;;
43529;SDS011;55654;50.966;6.878;2023-06-14T09:08:50;3.13;;;1.30;;
43529;SDS011;55654;50.966;6.878;2023-06-14T09:11:17;2.20;;;1.52;;
43529;SDS011;55654;50.966;6.878;2023-06-14T09:13:44;5.50;;;1.00;;
43529;SDS011;55654;50.966;6.878;2023-06-14T09:16:10;2.92;;;1.30;;
43529;SDS011;55654;50.966;6.878;2023-06-14T09:18:43;4.80;;;1.42;;
43529;SDS011;55654;50.966;6.878;2023-06-14T09:21:13;2.53;;;1.63;;
43529;SDS011;55654;50.966;6.878;2023-06-14T09:23:46;6.88;;;1.40;;
43529;SDS011;55654;50.966;6.878;2023-06-14T09:28:48;2.85;;;1.10;;
43529;SDS011;55654;50.966;6.878;2023-06-14T09:31:18;1.75;;;1.20;;
43529;SDS011;55654;50.966;6.878;2023-06-14T09:33:45;1.60;;;1.20;;
43529;SDS011;55654;50.966;6.878;2023-06-14T09:36:16;3.85;;;2.10;;
43529;SDS011;55654;50.966;6.878;2023-06-14T09:38:52;6.25;;;1.52;;
43529;SDS011;55654;50.966;6.878;2023-06-14T09:41:19;3.15;;;1.17;;
43529;SDS011;55654;50.966;6.878;2023-06-14T09:43:48;3.25;;;1.88;;
43529;SDS011;55654;50.966;6.878;2023-06-14T09:46:15;6.85;;;2.03;;
43529;SDS011;55654;50.966;6.878;2023-06-14T09:48:41;5.68;;;1.85;;
43529;SDS011;55654;50.966;6.878;2023-06-14T09:51:09;3.92;;;1.70;;
43529;SDS011;55654;50.966;6.878;2023-06-14T09:53:36;2.90;;;1.40;;
43529;SDS011;55654;50.966;6.878;2023-06-14T09:56:02;2.80;;;1.35;;
43529;SDS011;55654;50.966;6.878;2023-06-14T09:58:30;2.33;;;1.50;;
43529;SDS011;55654;50.966;6.878;2023-06-14T10:00:56;3.08;;;1.45;;
43529;SDS011;55654;50.966;6.878;2023-06-14T10:03:27;4.53;;;1.40;;
43529;SDS011;55654;50.966;6.878;2023-06-14T10:05:55;5.18;;;1.42;;
43529;SDS011;55654;50.966;6.878;2023-06-14T10:08:27;4.18;;;1.48;;
43529;SDS011;55654;50.966;6.878;2023-06-14T10:10:55;2.90;;;1.45;;
43529;SDS011;55654;50.966;6.878;2023-06-14T10:13:21;5.97;;;1.88;;
43529;SDS011;55654;50.966;6.878;2023-06-14T10:15:54;2.83;;;1.20;;
43529;SDS011;55654;50.966;6.878;2023-06-14T10:18:27;6.32;;;1.63;;
43529;SDS011;55654;50.966;6.878;2023-06-14T10:23:40;7.55;;;1.80;;
43529;SDS011;55654;50.966;6.878;2023-06-14T10:26:07;5.63;;;1.67;;
43529;SDS011;55654;50.966;6.878;2023-06-14T10:28:36;4.40;;;1.55;;
43529;SDS011;55654;50.966;6.878;2023-06-14T10:31:12;3.05;;;1.33;;
43529;SDS011;55654;50.966;6.878;2023-06-14T10:33:55;2.28;;;1.48;;
43529;SDS011;55654;50.966;6.878;2023-06-14T10:41:24;2.08;;;1.40;;
43529;SDS011;55654;50.966;6.878;2023-06-14T10:43:50;2.00;;;1.02;;
43529;SDS011;55654;50.966;6.878;2023-06-14T10:46:19;3.13;;;1.40;;
43529;SDS011;55654;50.966;6.878;2023-06-14T10:48:48;8.07;;;1.42;;
43529;SDS011;55654;50.966;6.878;2023-06-14T10:51:20;8.07;;;1.80;;
43529;SDS011;55654;50.966;6.878;2023-06-14T10:53:47;4.28;;;1.45;;
43529;SDS011;55654;50.966;6.878;2023-06-14T10:56:24;4.20;;;2.00;;
43529;SDS011;55654;50.966;6.878;2023-06-14T10:58:52;5.68;;;1.48;;
43529;SDS011;55654;50.966;6.878;2023-06-14T11:01:19;5.68;;;1.80;;
43529;SDS011;55654;50.966;6.878;2023-06-14T11:03:52;3.47;;;1.35;;
43529;SDS011;55654;50.966;6.878;2023-06-14T11:06:18;6.85;;;1.50;;
43529;SDS011;55654;50.966;6.878;2023-06-14T11:11:31;3.15;;;1.50;;
43529;SDS011;55654;50.966;6.878;2023-06-14T11:13:59;8.90;;;2.13;;
43529;SDS011;55654;50.966;6.878;2023-06-14T11:16:26;9.30;;;1.75;;
43529;SDS011;55654;50.966;6.878;2023-06-14T11:18:53;5.60;;;1.52;;
43529;SDS011;55654;50.966;6.878;2023-06-14T11:21:19;4.88;;;1.35;;
43529;SDS011;55654;50.966;6.878;2023-06-14T11:23:49;3.08;;;1.30;;
43529;SDS011;55654;50.966;6.878;2023-06-14T11:26:15;3.80;;;1.27;;
43529;SDS011;55654;50.966;6.878;2023-06-14T11:28:44;6.15;;;1.50;;
43529;SDS011;55654;50.966;6.878;2023-06-14T11:31:10;3.17;;;1.55;;
43529;SDS011;55654;50.966;6.878;2023-06-14T11:33:36;3.75;;;1.52;;
43529;SDS011;55654;50.966;6.878;2023-06-14T11:36:05;6.40;;;1.73;;
43529;SDS011;55654;50.966;6.878;2023-06-14T11:38:36;9.75;;;1.50;;
43529;SDS011;55654;50.966;6.878;2023-06-14T11:41:04;11.85;;;1.67;;
43529;SDS011;55654;50.966;6.878;2023-06-14T11:43:31;5.63;;;1.50;;
43529;SDS011;55654;50.966;6.878;2023-06-14T11:45:59;13.85;;;2.00;;
43529;SDS011;55654;50.966;6.878;2023-06-14T11:48:59;2.63;;;1.23;;
43529;SDS011;55654;50.966;6.878;2023-06-14T11:51:18;5.57;;;1.80;;
43529;SDS011;55654;50.966;6.878;2023-06-14T11:53:45;1.40;;;1.05;;
43529;SDS011;55654;50.966;6.878;2023-06-14T11:56:14;7.35;;;1.60;;
43529;SDS011;55654;50.966;6.878;2023-06-14T11:58:42;3.53;;;1.08;;
43529;SDS011;55654;50.966;6.878;2023-06-14T12:01:08;2.67;;;1.63;;
43529;SDS011;55654;50.966;6.878;2023-06-14T12:03:34;3.13;;;1.13;;
43529;SDS011;55654;50.966;6.878;2023-06-14T12:06:08;2.92;;;1.67;;
43529;SDS011;55654;50.966;6.878;2023-06-14T12:08:39;7.38;;;1.90;;
43529;SDS011;55654;50.966;6.878;2023-06-14T12:11:06;4.70;;;1.25;;
43529;SDS011;55654;50.966;6.878;2023-06-14T12:13:37;2.15;;;1.20;;
43529;SDS011;55654;50.966;6.878;2023-06-14T12:16:04;4.80;;;1.23;;
43529;SDS011;55654;50.966;6.878;2023-06-14T12:18:34;2.05;;;0.95;;
43529;SDS011;55654;50.966;6.878;2023-06-14T12:21:00;3.75;;;1.50;;
43529;SDS011;55654;50.966;6.878;2023-06-14T12:26:13;2.85;;;1.35;;
43529;SDS011;55654;50.966;6.878;2023-06-14T12:28:40;6.30;;;1.27;;
43529;SDS011;55654;50.966;6.878;2023-06-14T12:31:07;4.00;;;1.15;;
43529;SDS011;55654;50.966;6.878;2023-06-14T12:33:33;5.15;;;1.30;;
43529;SDS011;55654;50.966;6.878;2023-06-14T12:35:59;2.78;;;1.27;;
43529;SDS011;55654;50.966;6.878;2023-06-14T12:38:25;2.95;;;1.35;;
43529;SDS011;55654;50.966;6.878;2023-06-14T12:40:51;3.50;;;1.00;;
43529;SDS011;55654;50.966;6.878;2023-06-14T12:43:18;1.13;;;0.75;;
43529;SDS011;55654;50.966;6.878;2023-06-14T12:45:44;3.28;;;1.10;;
43529;SDS011;55654;50.966;6.878;2023-06-14T12:48:10;3.42;;;1.02;;
43529;SDS011;55654;50.966;6.878;2023-06-14T12:50:36;3.72;;;1.10;;
43529;SDS011;55654;50.966;6.878;2023-06-14T12:53:02;3.00;;;1.10;;
43529;SDS011;55654;50.966;6.878;2023-06-14T12:55:28;3.10;;;1.67;;
43529;SDS011;55654;50.966;6.878;2023-06-14T12:57:54;1.83;;;1.30;;
43529;SDS011;55654;50.966;6.878;2023-06-14T13:00:20;5.68;;;1.38;;
43529;SDS011;55654;50.966;6.878;2023-06-14T13:02:47;2.03;;;1.10;;
43529;SDS011;55654;50.966;6.878;2023-06-14T13:05:13;2.67;;;1.58;;
43529;SDS011;55654;50.966;6.878;2023-06-14T13:07:38;2.55;;;0.95;;
43529;SDS011;55654;50.966;6.878;2023-06-14T13:10:05;2.42;;;0.98;;
43529;SDS011;55654;50.966;6.878;2023-06-14T13:12:31;1.52;;;1.20;;
43529;SDS011;55654;50.966;6.878;2023-06-14T13:14:57;3.53;;;0.73;;
43529;SDS011;55654;50.966;6.878;2023-06-14T13:17:23;3.33;;;1.20;;
43529;SDS011;55654;50.966;6.878;2023-06-14T13:19:49;2.90;;;1.30;;
43529;SDS011;55654;50.966;6.878;2023-06-14T13:22:15;2.33;;;1.10;;
43529;SDS011;55654;50.966;6.878;2023-06-14T13:27:13;1.88;;;1.25;;
43529;SDS011;55654;50.966;6.878;2023-06-14T13:29:39;2.75;;;1.00;;
43529;SDS011;55654;50.966;6.878;2023-06-14T13:32:05;3.08;;;1.23;;
43529;SDS011;55654;50.966;6.878;2023-06-14T13:34:31;1.67;;;0.93;;
43529;SDS011;55654;50.966;6.878;2023-06-14T13:36:57;4.60;;;0.98;;
43529;SDS011;55654;50.966;6.878;2023-06-14T13:39:24;1.65;;;0.80;;
43529;SDS011;55654;50.966;6.878;2023-06-14T13:41:50;6.63;;;1.30;;
43529;SDS011;55654;50.966;6.878;2023-06-14T13:44:18;4.80;;;1.25;;
43529;SDS011;55654;50.966;6.878;2023-06-14T13:46:46;1.88;;;0.88;;
43529;SDS011;55654;50.966;6.878;2023-06-14T13:49:12;4.88;;;1.00;;
43529;SDS011;55654;50.966;6.878;2023-06-14T13:51:38;10.32;;;1.73;;
43529;SDS011;55654;50.966;6.878;2023-06-14T13:54:04;2.53;;;1.00;;
43529;SDS011;55654;50.966;6.878;2023-06-14T13:56:30;3.05;;;1.38;;
43529;SDS011;55654;50.966;6.878;2023-06-14T13:58:56;9.77;;;2.20;;
43529;SDS011;55654;50.966;6.878;2023-06-14T14:01:22;2.53;;;1.20;;
43529;SDS011;55654;50.966;6.878;2023-06-14T14:03:48;3.53;;;1.05;;
43529;SDS011;55654;50.966;6.878;2023-06-14T14:06:15;3.95;;;1.52;;
43529;SDS011;55654;50.966;6.878;2023-06-14T14:08:41;3.05;;;1.15;;
43529;SDS011;55654;50.966;6.878;2023-06-14T14:11:08;2.78;;;1.30;;
43529;SDS011;55654;50.966;6.878;2023-06-14T14:13:35;8.52;;;1.02;;
43529;SDS011;55654;50.966;6.878;2023-06-14T14:16:01;1.75;;;1.20;;
43529;SDS011;55654;50.966;6.878;2023-06-14T14:18:30;3.63;;;1.50;;
43529;SDS011;55654;50.966;6.878;2023-06-14T14:20:57;6.22;;;2.00;;
43529;SDS011;55654;50.966;6.878;2023-06-14T14:23:23;5.47;;;1.60;;
43529;SDS011;55654;50.966;6.878;2023-06-14T14:25:50;55.25;;;4.35;;
43529;SDS011;55654;50.966;6.878;2023-06-14T14:28:16;5.00;;;1.10;;
43529;SDS011;55654;50.966;6.878;2023-06-14T14:30:44;2.53;;;1.25;;
43529;SDS011;55654;50.966;6.878;2023-06-14T14:33:10;2.75;;;1.30;;
43529;SDS011;55654;50.966;6.878;2023-06-14T14:35:40;2.85;;;1.30;;
43529;SDS011;55654;50.966;6.878;2023-06-14T14:38:06;6.35;;;1.63;;
43529;SDS011;55654;50.966;6.878;2023-06-14T14:40:32;1.48;;;1.10;;
43529;SDS011;55654;50.966;6.878;2023-06-14T14:43:04;3.42;;;1.30;;
43529;SDS011;55654;50.966;6.878;2023-06-14T14:45:30;2.45;;;1.55;;
43529;SDS011;55654;50.966;6.878;2023-06-14T14:47:56;2.10;;;1.15;;
43529;SDS011;55654;50.966;6.878;2023-06-14T14:50:22;1.50;;;1.13;;
43529;SDS011;55654;50.966;6.878;2023-06-14T14:52:48;4.53;;;1.35;;
43529;SDS011;55654;50.966;6.878;2023-06-14T14:55:14;3.70;;;1.70;;
43529;SDS011;55654;50.966;6.878;2023-06-14T14:57:40;3.50;;;1.52;;
43529;SDS011;55654;50.966;6.878;2023-06-14T15:00:12;3.00;;;1.20;;
43529;SDS011;55654;50.966;6.878;2023-06-14T15:02:39;3.35;;;1.13;;
43529;SDS011;55654;50.966;6.878;2023-06-14T15:05:05;7.18;;;1.48;;
43529;SDS011;55654;50.966;6.878;2023-06-14T15:07:31;4.55;;;1.20;;
43529;SDS011;55654;50.966;6.878;2023-06-14T15:09:58;2.38;;;1.20;;
43529;SDS011;55654;50.966;6.878;2023-06-14T15:12:24;2.70;;;1.27;;
43529;SDS011;55654;50.966;6.878;2023-06-14T15:14:50;1.80;;;1.20;;